createdAt,value
2022-07-28T00:00:42.898Z,16.82
2022-07-28T00:02:36.084Z,16.82
2022-07-28T00:03:36.058Z,16.84
2022-07-28T00:05:29.252Z,16.84
2022-07-28T00:06:29.254Z,16.82
2022-07-28T00:08:22.426Z,16.87
2022-07-28T00:09:22.456Z,16.75
2022-07-28T00:11:26.567Z,16.84
2022-07-28T00:12:26.565Z,16.80
2022-07-28T00:14:19.578Z,16.78
2022-07-28T00:15:19.575Z,16.73
2022-07-28T00:17:23.672Z,16.72
2022-07-28T00:18:23.703Z,16.78
2022-07-28T00:20:27.805Z,16.81
2022-07-28T00:21:27.807Z,16.77
2022-07-28T00:23:21.020Z,16.73
2022-07-28T00:24:21.016Z,16.69
2022-07-28T00:26:14.212Z,16.77
2022-07-28T00:27:14.217Z,16.66
2022-07-28T00:29:18.287Z,16.63
2022-07-28T00:30:18.317Z,16.60
2022-07-28T00:32:11.487Z,16.62
2022-07-28T00:33:11.524Z,16.59
2022-07-28T00:35:15.712Z,16.63
2022-07-28T00:36:15.618Z,16.55
2022-07-28T00:38:08.847Z,16.59
2022-07-28T00:39:08.879Z,16.51
2022-07-28T00:41:02.078Z,16.50
2022-07-28T00:42:02.074Z,16.40
2022-07-28T00:44:06.171Z,16.42
2022-07-28T00:45:06.202Z,16.44
2022-07-28T00:46:59.409Z,16.48
2022-07-28T00:47:59.400Z,16.47
2022-07-28T00:49:52.584Z,16.40
2022-07-28T00:50:52.607Z,16.32
2022-07-28T00:52:56.682Z,16.40
2022-07-28T00:53:56.715Z,16.34
2022-07-28T00:56:05.353Z,16.41
2022-07-28T00:57:00.827Z,16.36
2022-07-28T00:58:54.009Z,16.29
2022-07-28T00:59:54.006Z,16.30
2022-07-28T01:01:47.385Z,16.23
2022-07-28T01:02:47.419Z,16.23
2022-07-28T01:04:40.304Z,16.30
2022-07-28T01:05:44.159Z,16.23
2022-07-28T01:07:33.592Z,16.23
2022-07-28T01:08:33.621Z,16.18
2022-07-28T01:10:37.695Z,16.22
2022-07-28T01:11:42.643Z,16.13
2022-07-28T01:13:33.115Z,16.18
2022-07-28T01:14:30.935Z,16.18
2022-07-28T01:16:24.140Z,16.22
2022-07-28T01:17:24.142Z,16.11
2022-07-28T01:19:17.344Z,16.16
2022-07-28T01:20:17.342Z,16.17
2022-07-28T01:21:17.374Z,16.10
2022-07-28T01:22:17.409Z,16.07
2022-07-28T01:23:17.442Z,16.14
2022-07-28T01:24:17.780Z,16.13
2022-07-28T01:25:17.514Z,16.13
2022-07-28T01:26:17.567Z,16.08
2022-07-28T01:27:17.584Z,16.06
2022-07-28T01:28:17.620Z,15.96
2022-07-28T01:29:17.658Z,16.07
2022-07-28T01:30:17.696Z,16.03
2022-07-28T01:31:17.819Z,15.99
2022-07-28T01:32:17.763Z,16.13
2022-07-28T01:33:17.799Z,16.06
2022-07-28T01:34:17.974Z,16.03
2022-07-28T01:35:17.868Z,16.08
2022-07-28T01:36:17.904Z,16.06
2022-07-28T01:37:17.939Z,16.04
2022-07-28T01:38:17.972Z,15.96
2022-07-28T01:39:18.008Z,15.93
2022-07-28T01:40:18.067Z,15.98
2022-07-28T01:41:18.079Z,15.93
2022-07-28T01:42:18.118Z,15.92
2022-07-28T01:43:18.149Z,15.93
2022-07-28T01:44:18.190Z,15.85
2022-07-28T01:45:18.218Z,15.98
2022-07-28T01:46:18.373Z,15.92
2022-07-28T01:47:18.392Z,15.91
2022-07-28T01:48:18.354Z,15.86
2022-07-28T01:49:18.462Z,15.85
2022-07-28T01:50:18.393Z,15.85
2022-07-28T01:51:18.429Z,15.80
2022-07-28T01:52:18.465Z,15.89
2022-07-28T01:53:18.500Z,15.88
2022-07-28T01:54:18.543Z,15.89
2022-07-28T01:55:18.569Z,15.81
2022-07-28T01:56:18.603Z,15.78
2022-07-28T01:57:18.650Z,15.85
2022-07-28T01:58:18.705Z,15.78
2022-07-28T01:59:18.708Z,15.73
2022-07-28T02:00:18.744Z,15.74
2022-07-28T02:01:18.839Z,15.77
2022-07-28T02:02:18.814Z,15.76
2022-07-28T02:03:18.847Z,15.77
2022-07-28T02:04:18.882Z,15.71
2022-07-28T02:05:19.346Z,15.76
2022-07-28T02:06:18.952Z,15.68
2022-07-28T02:07:18.990Z,15.68
2022-07-28T02:08:19.030Z,15.64
2022-07-28T02:09:19.064Z,15.68
2022-07-28T02:10:19.092Z,15.64
2022-07-28T02:11:19.126Z,15.58
2022-07-28T02:12:19.161Z,15.62
2022-07-28T02:13:19.202Z,15.66
2022-07-28T02:14:19.236Z,15.60
2022-07-28T02:15:19.264Z,15.60
2022-07-28T02:16:19.353Z,15.58
2022-07-28T02:17:19.335Z,15.58
2022-07-28T02:18:19.371Z,15.64
2022-07-28T02:19:19.411Z,15.60
2022-07-28T02:20:19.447Z,15.58
2022-07-28T02:21:19.475Z,15.59
2022-07-28T02:22:19.510Z,15.56
2022-07-28T02:23:19.546Z,15.52
2022-07-28T02:24:19.584Z,15.52
2022-07-28T02:25:19.613Z,15.59
2022-07-28T02:26:19.652Z,15.51
2022-07-28T02:27:19.683Z,15.49
2022-07-28T02:28:19.720Z,15.51
2022-07-28T02:29:47.930Z,15.49
2022-07-28T02:30:19.787Z,15.48
2022-07-28T02:31:19.894Z,15.52
2022-07-28T02:32:27.009Z,15.48
2022-07-28T02:33:26.299Z,15.43
2022-07-28T02:34:20.004Z,15.43
2022-07-28T02:35:19.972Z,15.46
2022-07-28T02:36:19.998Z,15.44
2022-07-28T02:37:20.047Z,15.44
2022-07-28T02:38:20.065Z,15.48
2022-07-28T02:39:20.099Z,15.41
2022-07-28T02:40:20.136Z,15.34
2022-07-28T02:41:20.168Z,15.33
2022-07-28T02:42:20.203Z,15.40
2022-07-28T02:43:20.243Z,15.28
2022-07-28T02:44:20.303Z,15.34
2022-07-28T02:45:20.313Z,15.30
2022-07-28T02:46:20.447Z,15.34
2022-07-28T02:47:20.379Z,15.30
2022-07-28T02:48:20.413Z,15.34
2022-07-28T02:49:20.508Z,15.20
2022-07-28T02:50:20.483Z,15.20
2022-07-28T02:51:20.515Z,15.27
2022-07-28T02:52:20.551Z,15.18
2022-07-28T02:53:20.587Z,15.22
2022-07-28T02:54:20.622Z,15.19
2022-07-28T02:55:20.658Z,15.19
2022-07-28T02:56:20.689Z,15.22
2022-07-28T02:57:20.726Z,15.13
2022-07-28T02:58:20.758Z,15.15
2022-07-28T02:59:20.793Z,15.18
2022-07-28T03:00:20.827Z,15.13
2022-07-28T03:01:20.933Z,15.11
2022-07-28T03:02:20.920Z,15.12
2022-07-28T03:03:20.936Z,15.09
2022-07-28T03:04:20.967Z,15.03
2022-07-28T03:05:21.099Z,15.13
2022-07-28T03:06:28.363Z,15.04
2022-07-28T03:07:21.069Z,15.05
2022-07-28T03:08:21.105Z,15.07
2022-07-28T03:09:21.139Z,15.03
2022-07-28T03:10:34.282Z,15.15
2022-07-28T03:11:21.210Z,14.98
2022-07-28T03:12:21.245Z,14.97
2022-07-28T03:13:21.282Z,15.04
2022-07-28T03:14:21.311Z,15.09
2022-07-28T03:15:21.347Z,15.07
2022-07-28T03:16:21.414Z,15.01
2022-07-28T03:17:21.515Z,14.98
2022-07-28T03:18:21.450Z,15.01
2022-07-28T03:19:21.486Z,14.95
2022-07-28T03:20:21.519Z,14.97
2022-07-28T03:21:21.553Z,14.95
2022-07-28T03:22:21.588Z,14.91
2022-07-28T03:23:21.622Z,14.95
2022-07-28T03:24:21.660Z,15.00
2022-07-28T03:25:21.697Z,15.01
2022-07-28T03:26:21.728Z,14.91
2022-07-28T03:27:21.760Z,14.86
2022-07-28T03:28:21.794Z,14.90
2022-07-28T03:29:21.829Z,14.85
2022-07-28T03:30:21.864Z,14.97
2022-07-28T03:31:21.940Z,14.93
2022-07-28T03:32:21.932Z,14.85
2022-07-28T03:33:21.967Z,14.90
2022-07-28T03:34:22.007Z,14.91
2022-07-28T03:35:22.038Z,14.90
2022-07-28T03:36:22.071Z,14.94
2022-07-28T03:37:22.106Z,14.95
2022-07-28T03:38:22.140Z,14.93
2022-07-28T03:39:22.173Z,14.94
2022-07-28T03:40:22.207Z,14.90
2022-07-28T03:41:22.244Z,14.93
2022-07-28T03:42:22.282Z,14.93
2022-07-28T03:43:22.309Z,14.85
2022-07-28T03:44:28.109Z,14.97
2022-07-28T03:45:22.387Z,14.86
2022-07-28T03:46:22.448Z,14.93
2022-07-28T03:47:22.449Z,14.94
2022-07-28T03:48:22.483Z,14.97
2022-07-28T03:49:22.685Z,14.91
2022-07-28T03:50:22.553Z,14.91
2022-07-28T03:51:22.586Z,14.91
2022-07-28T03:52:22.619Z,14.87
2022-07-28T03:53:22.658Z,14.98
2022-07-28T03:54:22.687Z,14.91
2022-07-28T03:55:22.724Z,14.91
2022-07-28T03:56:22.758Z,14.95
2022-07-28T03:57:22.792Z,14.86
2022-07-28T03:58:26.147Z,14.98
2022-07-28T03:59:22.866Z,14.97
2022-07-28T04:00:22.896Z,14.97
2022-07-28T04:01:22.998Z,14.98
2022-07-28T04:02:23.031Z,14.97
2022-07-28T04:03:36.700Z,15.00
2022-07-28T04:04:23.038Z,15.00
2022-07-28T04:05:23.069Z,15.01
2022-07-28T04:06:23.104Z,14.94
2022-07-28T04:07:23.135Z,15.11
2022-07-28T04:08:23.170Z,14.98
2022-07-28T04:09:23.211Z,14.95
2022-07-28T04:10:23.241Z,15.01
2022-07-28T04:11:23.273Z,14.98
2022-07-28T04:12:23.307Z,15.07
2022-07-28T04:13:23.341Z,15.09
2022-07-28T04:14:23.744Z,15.01
2022-07-28T04:15:23.410Z,15.07
2022-07-28T04:16:23.528Z,15.11
2022-07-28T04:17:23.481Z,15.03
2022-07-28T04:18:23.514Z,15.04
2022-07-28T04:19:23.549Z,15.05
2022-07-28T04:20:23.586Z,15.03
2022-07-28T04:21:23.616Z,15.07
2022-07-28T04:22:23.658Z,15.13
2022-07-28T04:23:23.686Z,15.04
2022-07-28T04:24:23.721Z,15.05
2022-07-28T04:25:23.754Z,15.07
2022-07-28T04:27:36.263Z,15.09
2022-07-28T04:28:36.290Z,15.01
2022-07-28T04:30:43.850Z,15.15
2022-07-28T04:31:40.379Z,15.09
2022-07-28T04:33:44.424Z,15.18
2022-07-28T04:34:44.449Z,15.12
2022-07-28T04:36:48.497Z,15.16
2022-07-28T04:37:48.532Z,15.13
2022-07-28T04:39:52.581Z,15.22
2022-07-28T04:40:52.608Z,15.19
2022-07-28T04:42:56.661Z,15.22
2022-07-28T04:43:56.688Z,15.22
2022-07-28T04:46:00.833Z,15.30
2022-07-28T04:47:00.773Z,15.33
2022-07-28T04:49:04.867Z,15.35
2022-07-28T04:50:04.849Z,15.27
2022-07-28T04:52:08.937Z,15.31
2022-07-28T04:53:08.931Z,15.31
2022-07-28T04:55:12.988Z,15.33
2022-07-28T04:56:13.015Z,15.38
2022-07-28T04:58:17.182Z,15.38
2022-07-28T04:59:17.204Z,15.27
2022-07-28T05:01:21.301Z,15.38
2022-07-28T05:02:21.284Z,15.46
2022-07-28T05:04:14.680Z,15.41
2022-07-28T05:05:14.332Z,15.49
2022-07-28T05:07:18.335Z,15.44
2022-07-28T05:08:18.361Z,15.51
2022-07-28T05:10:22.449Z,15.53
2022-07-28T05:11:22.441Z,15.44
2022-07-28T05:13:31.834Z,15.52
2022-07-28T05:14:26.555Z,15.48
2022-07-28T05:16:30.658Z,15.55
2022-07-28T05:17:30.606Z,15.58
2022-07-28T05:19:34.657Z,15.62
2022-07-28T05:20:34.689Z,15.59
2022-07-28T05:22:38.777Z,15.58
2022-07-28T05:23:38.767Z,15.60
2022-07-28T05:25:42.822Z,15.71
2022-07-28T05:26:42.850Z,15.71
2022-07-28T05:28:46.910Z,15.76
2022-07-28T05:29:48.068Z,15.84
2022-07-28T05:31:51.076Z,15.85
2022-07-28T05:32:51.024Z,15.89
2022-07-28T05:34:43.987Z,15.86
2022-07-28T05:35:44.012Z,15.98
2022-07-28T05:37:48.103Z,15.99
2022-07-28T05:38:48.096Z,16.06
2022-07-28T05:40:52.169Z,16.03
2022-07-28T05:41:52.190Z,16.11
2022-07-28T05:42:52.219Z,16.10
2022-07-28T05:43:52.252Z,16.08
2022-07-28T05:44:52.286Z,16.06
2022-07-28T05:45:52.381Z,16.16
2022-07-28T05:46:52.356Z,16.13
2022-07-28T05:47:52.390Z,16.26
2022-07-28T05:48:52.472Z,16.22
2022-07-28T05:49:52.463Z,16.18
2022-07-28T05:50:52.494Z,16.22
2022-07-28T05:51:52.532Z,16.25
2022-07-28T05:52:52.564Z,16.40
2022-07-28T05:53:52.600Z,16.37
2022-07-28T05:54:52.634Z,16.41
2022-07-28T05:56:00.656Z,16.45
2022-07-28T05:56:52.725Z,16.50
2022-07-28T05:57:52.739Z,16.48
2022-07-28T05:58:52.777Z,16.57
2022-07-28T05:59:52.810Z,16.62
2022-07-28T06:00:52.893Z,16.66
2022-07-28T06:01:52.971Z,16.66
2022-07-28T06:02:52.916Z,16.70
2022-07-28T06:04:09.989Z,16.72
2022-07-28T06:04:52.984Z,16.73
2022-07-28T06:05:59.374Z,16.84
2022-07-28T06:06:53.053Z,16.70
2022-07-28T06:07:53.089Z,16.87
2022-07-28T06:08:53.125Z,16.85
2022-07-28T06:09:53.164Z,16.90
2022-07-28T06:10:53.198Z,16.95
2022-07-28T06:11:53.230Z,16.96
2022-07-28T06:12:53.264Z,16.99
2022-07-28T06:13:53.309Z,17.05
2022-07-28T06:14:53.334Z,17.06
2022-07-28T06:15:53.369Z,17.07
2022-07-28T06:16:53.445Z,17.18
2022-07-28T06:17:53.468Z,17.27
2022-07-28T06:18:53.483Z,17.17
2022-07-28T06:19:53.511Z,17.24
2022-07-28T06:20:54.149Z,17.17
2022-07-28T06:21:53.642Z,17.18
2022-07-28T06:22:53.619Z,17.35
2022-07-28T06:23:53.651Z,17.39
2022-07-28T06:24:53.688Z,17.39
2022-07-28T06:25:53.729Z,17.39
2022-07-28T06:26:53.758Z,17.46
2022-07-28T06:27:53.792Z,17.53
2022-07-28T06:28:53.829Z,17.54
2022-07-28T06:29:53.864Z,17.55
2022-07-28T06:30:53.899Z,17.57
2022-07-28T06:31:53.973Z,17.58
2022-07-28T06:32:53.972Z,17.62
2022-07-28T06:33:54.006Z,17.68
2022-07-28T06:34:54.042Z,17.76
2022-07-28T06:35:54.080Z,17.70
2022-07-28T06:36:54.113Z,17.71
2022-07-28T06:37:55.073Z,17.81
2022-07-28T06:38:54.182Z,17.81
2022-07-28T06:39:54.217Z,17.87
2022-07-28T06:40:54.253Z,17.84
2022-07-28T06:41:54.291Z,17.94
2022-07-28T06:42:54.325Z,17.92
2022-07-28T06:43:54.364Z,17.99
2022-07-28T06:44:59.388Z,17.95
2022-07-28T06:45:54.435Z,18.09
2022-07-28T06:46:54.489Z,18.04
2022-07-28T06:47:54.505Z,18.04
2022-07-28T06:48:54.573Z,18.09
2022-07-28T06:49:54.576Z,18.16
2022-07-28T06:50:54.610Z,18.20
2022-07-28T06:51:54.646Z,18.25
2022-07-28T06:52:54.684Z,18.31
2022-07-28T06:53:54.722Z,18.28
2022-07-28T06:54:58.366Z,18.29
2022-07-28T06:55:54.790Z,18.47
2022-07-28T06:56:54.824Z,18.42
2022-07-28T06:57:54.863Z,18.44
2022-07-28T06:58:54.895Z,18.42
2022-07-28T06:59:54.932Z,18.44
2022-07-28T07:00:55.048Z,18.49
2022-07-28T07:01:55.009Z,18.46
2022-07-28T07:02:55.040Z,18.49
2022-07-28T07:03:55.133Z,18.56
2022-07-28T07:04:55.121Z,18.59
2022-07-28T07:05:55.152Z,18.44
2022-07-28T07:06:55.184Z,18.51
2022-07-28T07:07:55.232Z,18.47
2022-07-28T07:08:55.257Z,18.57
2022-07-28T07:09:55.291Z,18.60
2022-07-28T07:10:55.328Z,18.62
2022-07-28T07:11:55.363Z,18.66
2022-07-28T07:12:55.400Z,18.68
2022-07-28T07:13:55.460Z,18.69
2022-07-28T07:14:55.515Z,18.71
2022-07-28T07:15:55.579Z,18.75
2022-07-28T07:16:55.543Z,18.74
2022-07-28T07:17:55.579Z,18.75
2022-07-28T07:18:55.617Z,18.82
2022-07-28T07:19:55.650Z,18.83
2022-07-28T07:20:55.689Z,18.84
2022-07-28T07:21:55.737Z,18.79
2022-07-28T07:22:55.762Z,18.84
2022-07-28T07:23:55.795Z,18.78
2022-07-28T07:24:57.602Z,18.76
2022-07-28T07:25:55.866Z,18.84
2022-07-28T07:26:55.905Z,18.87
2022-07-28T07:27:55.940Z,18.86
2022-07-28T07:28:55.978Z,18.89
2022-07-28T07:29:56.021Z,18.93
2022-07-28T07:30:56.127Z,19.02
2022-07-28T07:31:56.158Z,19.09
2022-07-28T07:32:56.120Z,19.17
2022-07-28T07:33:56.156Z,19.16
2022-07-28T07:34:56.194Z,19.31
2022-07-28T07:35:56.229Z,19.39
2022-07-28T07:36:56.265Z,19.39
2022-07-28T07:37:56.301Z,19.52
2022-07-28T07:38:56.343Z,19.53
2022-07-28T07:39:56.378Z,19.61
2022-07-28T07:40:56.410Z,19.75
2022-07-28T07:41:56.448Z,19.70
2022-07-28T07:42:56.485Z,19.78
2022-07-28T07:43:56.517Z,19.83
2022-07-28T07:44:56.556Z,19.86
2022-07-28T07:45:56.592Z,19.90
2022-07-28T07:46:56.654Z,19.92
2022-07-28T07:47:56.679Z,20.04
2022-07-28T07:48:56.737Z,20.02
2022-07-28T07:49:56.738Z,20.16
2022-07-28T07:50:56.775Z,20.17
2022-07-28T07:51:56.817Z,20.22
2022-07-28T07:52:56.861Z,20.33
2022-07-28T07:53:56.886Z,20.31
2022-07-28T07:54:56.922Z,20.46
2022-07-28T07:55:56.970Z,20.46
2022-07-28T07:56:56.994Z,20.42
2022-07-28T07:57:57.031Z,20.44
2022-07-28T07:58:57.386Z,20.64
2022-07-28T07:59:57.103Z,20.61
2022-07-28T08:00:57.144Z,20.61
2022-07-28T08:01:57.250Z,20.71
2022-07-28T08:02:57.221Z,20.73
2022-07-28T08:03:57.252Z,20.82
2022-07-28T08:04:57.358Z,20.87
2022-07-28T08:05:57.477Z,20.87
2022-07-28T08:06:57.365Z,20.85
2022-07-28T08:07:57.446Z,20.87
2022-07-28T08:08:57.435Z,20.96
2022-07-28T08:09:57.472Z,20.85
2022-07-28T08:10:57.511Z,20.93
2022-07-28T08:11:57.567Z,20.83
2022-07-28T08:12:57.588Z,20.96
2022-07-28T08:13:57.619Z,20.96
2022-07-28T08:14:57.659Z,20.94
2022-07-28T08:15:57.725Z,20.98
2022-07-28T08:16:57.737Z,20.96
2022-07-28T08:17:57.782Z,21.00
2022-07-28T08:18:57.807Z,21.03
2022-07-28T08:19:57.845Z,21.06
2022-07-28T08:20:57.881Z,21.09
2022-07-28T08:21:57.918Z,21.16
2022-07-28T08:22:57.955Z,21.08
2022-07-28T08:23:57.992Z,21.21
2022-07-28T08:24:58.029Z,21.21
2022-07-28T08:25:58.068Z,21.27
2022-07-28T08:26:58.103Z,21.21
2022-07-28T08:27:58.138Z,21.30
2022-07-28T08:28:58.176Z,21.34
2022-07-28T08:29:58.213Z,21.38
2022-07-28T08:30:58.334Z,21.34
2022-07-28T08:31:58.287Z,21.40
2022-07-28T08:32:58.342Z,21.46
2022-07-28T08:33:58.369Z,21.42
2022-07-28T08:35:29.949Z,21.46
2022-07-28T08:35:58.438Z,21.49
2022-07-28T08:36:58.476Z,21.43
2022-07-28T08:37:58.511Z,21.51
2022-07-28T08:38:58.550Z,21.45
2022-07-28T08:39:58.586Z,21.46
2022-07-28T08:40:58.624Z,21.40
2022-07-28T08:41:58.664Z,21.45
2022-07-28T08:42:58.698Z,21.46
2022-07-28T08:43:58.735Z,21.58
2022-07-28T08:44:58.773Z,21.61
2022-07-28T08:45:58.938Z,21.70
2022-07-28T08:46:58.902Z,21.71
2022-07-28T08:48:08.332Z,21.71
2022-07-28T08:48:58.972Z,21.70
2022-07-28T08:49:58.961Z,21.85
2022-07-28T08:50:58.998Z,21.89
2022-07-28T08:51:59.040Z,21.86
2022-07-28T08:52:59.698Z,21.86
2022-07-28T08:53:59.110Z,21.86
2022-07-28T08:54:59.151Z,21.91
2022-07-28T08:55:59.184Z,21.90
2022-07-28T08:56:59.223Z,21.93
2022-07-28T08:57:59.259Z,21.89
2022-07-28T08:58:59.299Z,21.86
2022-07-28T08:59:59.334Z,21.81
2022-07-28T09:00:59.376Z,21.83
2022-07-28T09:01:59.467Z,21.83
2022-07-28T09:02:59.562Z,21.91
2022-07-28T09:03:59.484Z,21.91
2022-07-28T09:04:59.527Z,21.86
2022-07-28T09:05:59.562Z,22.01
2022-07-28T09:06:59.600Z,22.04
2022-07-28T09:07:59.637Z,22.04
2022-07-28T09:08:59.676Z,22.08
2022-07-28T09:10:02.807Z,22.12
2022-07-28T09:10:59.754Z,22.19
2022-07-28T09:11:59.787Z,22.21
2022-07-28T09:12:59.824Z,22.24
2022-07-28T09:13:59.862Z,22.46
2022-07-28T09:14:59.903Z,22.46
2022-07-28T09:16:00.066Z,22.45
2022-07-28T09:16:59.976Z,22.61
2022-07-28T09:18:00.013Z,22.67
2022-07-28T09:19:00.050Z,22.66
2022-07-28T09:20:00.088Z,22.81
2022-07-28T09:21:00.139Z,22.75
2022-07-28T09:22:00.169Z,22.89
2022-07-28T09:23:00.202Z,22.96
2022-07-28T09:24:00.237Z,22.96
2022-07-28T09:25:00.276Z,23.04
2022-07-28T09:26:00.317Z,22.99
2022-07-28T09:27:00.364Z,23.07
2022-07-28T09:28:00.402Z,23.03
2022-07-28T09:29:00.447Z,23.21
2022-07-28T09:30:00.470Z,23.11
2022-07-28T09:31:00.529Z,23.18
2022-07-28T09:32:00.651Z,23.26
2022-07-28T09:33:00.600Z,23.32
2022-07-28T09:34:00.622Z,23.34
2022-07-28T09:35:00.660Z,23.35
2022-07-28T09:36:00.694Z,23.47
2022-07-28T09:37:00.737Z,23.56
2022-07-28T09:38:00.775Z,23.52
2022-07-28T09:39:00.812Z,23.63
2022-07-28T09:40:02.335Z,23.64
2022-07-28T09:41:00.887Z,23.75
2022-07-28T09:42:00.925Z,23.71
2022-07-28T09:43:00.963Z,23.79
2022-07-28T09:44:00.999Z,23.77
2022-07-28T09:45:21.994Z,23.89
2022-07-28T09:46:01.108Z,23.86
2022-07-28T09:47:01.323Z,23.86
2022-07-28T09:48:01.283Z,23.86
2022-07-28T09:49:01.628Z,23.94
2022-07-28T09:50:01.275Z,23.97
2022-07-28T09:51:01.272Z,23.97
2022-07-28T09:52:01.314Z,23.99
2022-07-28T09:53:01.346Z,24.00
2022-07-28T09:54:01.384Z,24.04
2022-07-28T09:55:01.425Z,24.08
2022-07-28T09:56:01.468Z,24.16
2022-07-28T09:57:01.499Z,24.19
2022-07-28T09:58:01.537Z,24.19
2022-07-28T09:59:01.835Z,24.19
2022-07-28T10:00:01.622Z,24.26
2022-07-28T10:01:01.654Z,24.27
2022-07-28T10:02:02.322Z,24.21
2022-07-28T10:03:01.765Z,24.26
2022-07-28T10:04:02.782Z,24.23
2022-07-28T10:05:01.809Z,24.24
2022-07-28T10:06:01.846Z,24.27
2022-07-28T10:07:01.890Z,24.24
2022-07-28T10:08:01.927Z,24.14
2022-07-28T10:09:01.968Z,23.97
2022-07-28T10:10:02.002Z,23.96
2022-07-28T10:11:02.042Z,23.82
2022-07-28T10:12:02.081Z,23.87
2022-07-28T10:13:02.122Z,23.82
2022-07-28T10:14:02.155Z,23.79
2022-07-28T10:15:02.195Z,23.90
2022-07-28T10:16:02.272Z,23.84
2022-07-28T10:17:05.997Z,23.93
2022-07-28T10:18:02.321Z,23.96
2022-07-28T10:19:02.350Z,23.96
2022-07-28T10:20:02.390Z,24.02
2022-07-28T10:21:02.426Z,24.09
2022-07-28T10:22:02.465Z,24.02
2022-07-28T10:23:02.513Z,24.09
2022-07-28T10:24:02.544Z,24.19
2022-07-28T10:25:02.580Z,24.21
2022-07-28T10:26:02.623Z,24.27
2022-07-28T10:27:09.902Z,24.29
2022-07-28T10:29:06.721Z,24.42
2022-07-28T10:30:06.756Z,24.44
2022-07-28T10:31:59.932Z,24.49
2022-07-28T10:32:59.968Z,24.52
2022-07-28T10:34:52.973Z,24.60
2022-07-28T10:35:55.309Z,24.60
2022-07-28T10:37:57.075Z,24.67
2022-07-28T10:38:57.103Z,24.70
2022-07-28T10:41:01.173Z,24.74
2022-07-28T10:42:01.217Z,24.80
2022-07-28T10:43:54.395Z,24.90
2022-07-28T10:44:54.430Z,24.99
2022-07-28T10:46:47.714Z,25.01
2022-07-28T10:47:47.640Z,25.01
2022-07-28T10:49:40.824Z,25.07
2022-07-28T10:50:40.853Z,25.04
2022-07-28T10:52:48.177Z,25.09
2022-07-28T10:53:44.970Z,24.99
2022-07-28T10:55:38.152Z,25.01
2022-07-28T10:56:38.183Z,25.02
2022-07-28T10:58:42.248Z,25.12
2022-07-28T10:59:42.285Z,25.11
2022-07-28T11:01:48.463Z,25.19
2022-07-28T11:02:35.572Z,25.12
2022-07-28T11:04:29.517Z,25.14
2022-07-28T11:05:28.510Z,25.16
2022-07-28T11:07:32.604Z,25.27
2022-07-28T11:08:32.610Z,25.26
2022-07-28T11:10:36.674Z,25.35
2022-07-28T11:11:36.705Z,25.31
2022-07-28T11:13:41.525Z,25.48
2022-07-28T11:14:40.993Z,25.56
2022-07-28T11:16:44.935Z,25.60
2022-07-28T11:17:44.888Z,25.67
2022-07-28T11:19:42.519Z,25.75
2022-07-28T11:20:38.114Z,25.82
2022-07-28T11:22:42.186Z,25.78
2022-07-28T11:23:46.886Z,25.74
2022-07-28T11:25:46.295Z,25.60
2022-07-28T11:26:46.334Z,25.61
2022-07-28T11:28:50.389Z,25.63
2022-07-28T11:29:50.428Z,25.64
2022-07-28T11:31:54.530Z,25.56
2022-07-28T11:32:54.530Z,25.54
2022-07-28T11:34:47.505Z,25.41
2022-07-28T11:35:47.540Z,25.39
2022-07-28T11:37:51.637Z,25.36
2022-07-28T11:38:51.642Z,25.42
2022-07-28T11:40:55.703Z,25.45
2022-07-28T11:41:55.736Z,25.53
2022-07-28T11:43:59.817Z,25.61
2022-07-28T11:44:59.839Z,25.74
2022-07-28T11:46:53.193Z,25.79
2022-07-28T11:47:53.053Z,26.00
2022-07-28T11:49:57.115Z,26.11
2022-07-28T11:50:57.148Z,26.24
2022-07-28T11:53:01.229Z,26.44
2022-07-28T11:54:01.256Z,26.53
2022-07-28T11:56:05.334Z,26.59
2022-07-28T11:57:05.367Z,26.57
2022-07-28T11:58:58.574Z,26.73
2022-07-28T11:59:58.577Z,26.76
2022-07-28T12:02:02.693Z,26.83
2022-07-28T12:03:02.673Z,26.81
2022-07-28T12:05:06.884Z,26.83
2022-07-28T12:06:06.797Z,26.84
2022-07-28T12:07:06.831Z,26.75
2022-07-28T12:08:06.929Z,26.69
2022-07-28T12:09:06.950Z,26.71
2022-07-28T12:10:06.949Z,26.61
2022-07-28T12:11:06.990Z,26.72
2022-07-28T12:12:07.031Z,26.73
2022-07-28T12:13:07.069Z,26.69
2022-07-28T12:14:07.109Z,26.72
2022-07-28T12:15:07.639Z,26.81
2022-07-28T12:16:07.190Z,26.81
2022-07-28T12:17:07.266Z,26.83
2022-07-28T12:18:07.271Z,27.01
2022-07-28T12:19:07.319Z,26.93
2022-07-28T12:20:07.348Z,27.05
2022-07-28T12:21:07.395Z,27.08
2022-07-28T12:22:07.428Z,27.21
2022-07-28T12:23:07.470Z,27.25
2022-07-28T12:24:07.513Z,27.31
2022-07-28T12:25:13.497Z,27.39
2022-07-28T12:26:07.597Z,27.40
2022-07-28T12:27:07.635Z,27.46
2022-07-28T12:28:07.671Z,27.52
2022-07-28T12:29:08.516Z,27.52
2022-07-28T12:30:07.758Z,27.50
2022-07-28T12:31:07.792Z,27.53
2022-07-28T12:32:07.925Z,27.53
2022-07-28T12:33:07.878Z,27.58
2022-07-28T12:34:07.926Z,27.50
2022-07-28T12:35:07.954Z,27.61
2022-07-28T12:36:07.996Z,27.61
2022-07-28T12:37:08.036Z,27.71
2022-07-28T12:38:08.074Z,27.72
2022-07-28T12:39:12.592Z,27.72
2022-07-28T12:40:08.157Z,27.84
2022-07-28T12:41:08.199Z,27.80
2022-07-28T12:42:08.246Z,27.88
2022-07-28T12:43:08.283Z,27.98
2022-07-28T12:44:08.318Z,27.93
2022-07-28T12:45:08.359Z,28.03
2022-07-28T12:46:08.495Z,27.98
2022-07-28T12:47:08.440Z,27.96
2022-07-28T12:48:08.481Z,27.90
2022-07-28T12:49:08.699Z,27.84
2022-07-28T12:50:08.564Z,27.88
2022-07-28T12:51:08.602Z,27.83
2022-07-28T12:52:08.644Z,27.81
2022-07-28T12:53:08.694Z,27.84
2022-07-28T12:54:08.725Z,27.76
2022-07-28T12:55:08.768Z,27.72
2022-07-28T12:56:08.805Z,27.61
2022-07-28T12:57:08.848Z,27.68
2022-07-28T12:58:08.887Z,27.52
2022-07-28T12:59:08.927Z,27.50
2022-07-28T13:00:08.973Z,27.55
2022-07-28T13:01:09.091Z,27.50
2022-07-28T13:02:09.106Z,27.50
2022-07-28T13:03:09.092Z,27.46
2022-07-28T13:04:09.131Z,27.48
2022-07-28T13:05:09.174Z,27.39
2022-07-28T13:06:09.212Z,27.35
2022-07-28T13:07:09.254Z,27.42
2022-07-28T13:08:09.292Z,27.42
2022-07-28T13:09:14.956Z,27.30
2022-07-28T13:10:11.442Z,27.30
2022-07-28T13:11:17.341Z,27.25
2022-07-28T13:12:09.458Z,27.24
2022-07-28T13:13:09.504Z,27.18
2022-07-28T13:14:09.537Z,27.20
2022-07-28T13:15:09.581Z,27.16
2022-07-28T13:16:09.698Z,27.03
2022-07-28T13:17:09.661Z,27.08
2022-07-28T13:18:09.700Z,27.05
2022-07-28T13:19:09.815Z,27.16
2022-07-28T13:20:09.784Z,27.15
2022-07-28T13:21:09.825Z,27.18
2022-07-28T13:22:09.868Z,27.23
2022-07-28T13:23:09.902Z,27.23
2022-07-28T13:24:09.945Z,27.25
2022-07-28T13:25:09.984Z,27.28
2022-07-28T13:26:10.025Z,27.42
2022-07-28T13:27:10.065Z,27.40
2022-07-28T13:28:10.119Z,27.40
2022-07-28T13:29:12.757Z,27.40
2022-07-28T13:30:10.192Z,27.46
2022-07-28T13:31:10.326Z,27.49
2022-07-28T13:32:10.445Z,27.52
2022-07-28T13:33:13.759Z,27.53
2022-07-28T13:34:10.358Z,27.55
2022-07-28T13:35:14.877Z,27.63
2022-07-28T13:36:10.432Z,27.65
2022-07-28T13:37:10.483Z,27.72
2022-07-28T13:38:10.513Z,27.68
2022-07-28T13:39:10.555Z,27.62
2022-07-28T13:40:10.594Z,27.66
2022-07-28T13:41:10.638Z,27.69
2022-07-28T13:42:10.675Z,27.68
2022-07-28T13:43:11.177Z,27.61
2022-07-28T13:44:10.758Z,27.71
2022-07-28T13:45:10.802Z,27.68
2022-07-28T13:46:10.878Z,27.68
2022-07-28T13:47:10.880Z,27.69
2022-07-28T13:48:10.919Z,27.53
2022-07-28T13:49:11.020Z,27.62
2022-07-28T13:50:11.429Z,27.63
2022-07-28T13:51:11.041Z,27.62
2022-07-28T13:52:13.158Z,27.62
2022-07-28T13:53:11.124Z,27.68
2022-07-28T13:54:11.165Z,27.62
2022-07-28T13:55:11.206Z,27.65
2022-07-28T13:56:11.303Z,27.66
2022-07-28T13:57:11.289Z,27.66
2022-07-28T13:58:11.333Z,27.63
2022-07-28T13:59:13.133Z,27.65
2022-07-28T14:00:11.412Z,27.68
2022-07-28T14:01:11.473Z,27.74
2022-07-28T14:02:15.289Z,27.76
2022-07-28T14:03:11.682Z,27.71
2022-07-28T14:04:16.637Z,27.69
2022-07-28T14:05:11.615Z,27.83
2022-07-28T14:06:11.654Z,27.74
2022-07-28T14:07:11.695Z,27.68
2022-07-28T14:08:11.735Z,27.66
2022-07-28T14:09:11.777Z,27.76
2022-07-28T14:10:11.816Z,27.76
2022-07-28T14:11:11.863Z,27.74
2022-07-28T14:12:11.897Z,27.86
2022-07-28T14:13:11.960Z,27.86
2022-07-28T14:14:12.518Z,27.91
2022-07-28T14:15:12.021Z,27.90
2022-07-28T14:16:14.323Z,27.80
2022-07-28T14:17:40.083Z,27.83
2022-07-28T14:18:12.142Z,27.80